Aeroporto :
LOGIN :

Iscrizione | Disclaimer

   EN    FR    IT 

 










Sommario :    VFR   VFR Marginale   IFR   IFR Intensivo   IFR Molto Intensivo
Visibilità : 
Base nubi : 
>= 8 km
>= 3000ft
5 / 8 km
1000 / 3000 ft
1500m / 5 km
500 / 1000 ft
800 / 1500m
200 / 500 ft
< 800m
< 200 ft
Simboli :   Temporali  Nebbia  Neve Forte  Precipitazioni Forti  Vento > 20 kt
SIGMETs :   Varie  Temporali  Ghiacco  Turbolenza  Onda orograficha  Ceneri Vulcaniche






- Altitudine del aeroporto : 50 ft
- Codice IATA : KOI


EGPA - Kirkwall

ULTIMO METAR :
  • 220120Z AUTO 26011KT 9999 FEW004/// BKN011/// BKN034/// 02/01 Q0983 RERA

METARs OBSOLETI :
  • 220020Z AUTO 21019KT 9999 FEW024/// SCT029/// 05/02 Q0983
  • 212250Z AUTO 22018KT 9999 -RA FEW015/// SCT020/// BKN029/// 05/03 Q0985

TAF AMD TAF EGPA
Valido dal 21 a 21 ore il 22 a 06 ore UTC


212132Z 2121/2206 23019KT 9999 FEW012 SCT020
TEMPO 2121/2206 25024G35KT 2000 +SHRA BKN009CB
PROB30
TEMPO 2203/2206 26029G45KT SHRASN BKN006



MetMap, La meteo Aeronautica in un colpo d'occhio ! - Copyright ORBIFLY Dicembre 2007 - Disclaimer

ORBIFLY MET'MAP TEAM :

Programmazione e sviluppo : Alexandra Zaïnal
Concezione : Baudouin d'Aumeries
Aiuto per la programmazione : Marc-Olivier Méhu
Supporto tecnico e logistico : Manuel Goepfert
Aiuto per la traduzione : Arnaldo La Scala

Contatto : metmap@orbifly.com




FONTI E CREDITI :

   NOAA